createdAt,value
2022-09-26T00:01:33.899Z,4.18
2022-09-26T00:04:30.418Z,4.78
2022-09-26T00:06:59.468Z,4.95
2022-09-26T00:09:28.403Z,3.17
2022-09-26T00:11:55.406Z,4.05
2022-09-26T00:14:26.932Z,3.78
2022-09-26T00:16:54.219Z,3.72
2022-09-26T00:19:22.107Z,4.93
2022-09-26T00:21:49.076Z,4.22
2022-09-26T00:24:16.147Z,2.45
2022-09-26T00:26:43.032Z,5.93
2022-09-26T00:29:12.595Z,3.60
2022-09-26T00:31:44.206Z,3.85
2022-09-26T00:34:17.011Z,4.65
2022-09-26T00:36:44.585Z,4.90
2022-09-26T00:39:15.394Z,4.35
2022-09-26T00:41:43.104Z,4.55
2022-09-26T00:44:38.340Z,4.18
2022-09-26T00:47:19.949Z,2.90
2022-09-26T00:49:49.200Z,3.60
2022-09-26T00:52:30.672Z,3.30
2022-09-26T00:55:02.046Z,3.92
2022-09-26T00:57:38.696Z,2.70
2022-09-26T01:00:10.952Z,5.90
2022-09-26T01:02:39.286Z,4.88
2022-09-26T01:05:08.248Z,2.85
2022-09-26T01:07:35.410Z,7.15
2022-09-26T01:10:06.122Z,3.60
2022-09-26T01:12:36.101Z,5.50
2022-09-26T01:15:04.020Z,3.30
2022-09-26T01:17:31.235Z,3.22
2022-09-26T01:20:09.913Z,3.47
2022-09-26T01:22:52.644Z,5.13
2022-09-26T01:25:37.616Z,3.78
2022-09-26T01:28:45.848Z,3.63
2022-09-26T01:31:31.319Z,4.68
2022-09-26T01:34:29.997Z,4.07
2022-09-26T01:37:10.721Z,5.32
2022-09-26T01:40:17.678Z,6.03
2022-09-26T01:43:07.188Z,5.60
2022-09-26T01:45:54.043Z,5.35
2022-09-26T01:48:33.354Z,3.03
2022-09-26T01:51:16.938Z,5.75
2022-09-26T01:53:48.782Z,2.90
2022-09-26T01:56:24.751Z,5.03
2022-09-26T01:59:05.097Z,3.15
2022-09-26T02:01:41.658Z,6.53
2022-09-26T02:04:20.721Z,3.13
2022-09-26T02:07:08.730Z,6.70
2022-09-26T02:09:47.573Z,5.22
2022-09-26T02:12:25.187Z,3.78
2022-09-26T02:14:58.117Z,6.55
2022-09-26T02:17:41.456Z,5.80
2022-09-26T02:20:26.924Z,4.72
2022-09-26T02:22:53.861Z,6.20
2022-09-26T02:25:20.656Z,5.75
2022-09-26T02:27:50.116Z,6.05
2022-09-26T02:30:17.876Z,4.50
2022-09-26T02:32:44.724Z,10.40
2022-09-26T02:35:34.620Z,5.55
2022-09-26T02:38:04.434Z,5.93
2022-09-26T02:40:51.164Z,3.80
2022-09-26T02:44:07.377Z,6.97
2022-09-26T02:47:16.541Z,3.70
2022-09-26T02:50:34.404Z,7.13
2022-09-26T02:53:46.993Z,4.78
2022-09-26T02:56:25.738Z,5.88
2022-09-26T02:59:13.599Z,6.38
2022-09-26T03:02:09.931Z,5.43
2022-09-26T03:05:02.791Z,5.70
2022-09-26T03:07:45.427Z,4.47
2022-09-26T03:10:14.958Z,3.28
2022-09-26T03:12:44.928Z,4.30
2022-09-26T03:15:14.096Z,7.38
2022-09-26T03:17:48.411Z,6.10
2022-09-26T03:20:21.609Z,5.50
2022-09-26T03:22:50.638Z,5.70
2022-09-26T03:25:23.384Z,3.78
2022-09-26T03:27:58.553Z,4.97
2022-09-26T03:30:25.361Z,4.70
2022-09-26T03:33:21.599Z,4.20
2022-09-26T03:35:49.184Z,4.72
2022-09-26T03:38:16.143Z,6.40
2022-09-26T03:40:49.649Z,4.15
2022-09-26T03:43:37.234Z,4.75
2022-09-26T03:46:06.546Z,6.40
2022-09-26T03:48:35.428Z,4.82
2022-09-26T03:51:14.044Z,5.47
2022-09-26T03:53:43.895Z,6.35
2022-09-26T03:56:19.468Z,4.95
2022-09-26T03:58:48.963Z,5.53
2022-09-26T04:01:20.898Z,5.90
2022-09-26T04:03:51.117Z,4.72
2022-09-26T04:06:20.793Z,7.38
2022-09-26T04:08:51.804Z,5.10
2022-09-26T04:11:22.877Z,4.45
2022-09-26T04:13:53.251Z,6.00
2022-09-26T04:16:24.474Z,4.18
2022-09-26T04:19:14.968Z,7.68
2022-09-26T04:21:42.909Z,6.55
2022-09-26T04:24:15.830Z,5.68
2022-09-26T04:26:44.434Z,5.93
2022-09-26T04:29:11.845Z,6.60
2022-09-26T04:32:04.548Z,4.72
2022-09-26T04:34:41.938Z,4.90
2022-09-26T04:37:10.071Z,8.52
2022-09-26T04:39:36.954Z,3.78
2022-09-26T04:42:04.622Z,3.90
2022-09-26T04:44:32.670Z,5.70
2022-09-26T04:46:59.457Z,8.50
2022-09-26T04:49:40.501Z,5.30
2022-09-26T04:52:07.311Z,6.93
2022-09-26T04:54:38.357Z,5.13
2022-09-26T04:57:05.681Z,4.30
2022-09-26T04:59:32.820Z,6.45
2022-09-26T05:02:08.100Z,7.63
2022-09-26T05:04:40.017Z,6.50
2022-09-26T05:07:06.886Z,5.10
2022-09-26T05:09:36.108Z,4.85
2022-09-26T05:12:23.532Z,4.65
2022-09-26T05:14:53.938Z,5.40
2022-09-26T05:17:21.654Z,4.45
2022-09-26T05:19:48.897Z,2.58
2022-09-26T05:22:15.703Z,5.10
2022-09-26T05:25:00.834Z,6.78
2022-09-26T05:27:27.649Z,4.40
2022-09-26T05:29:55.794Z,4.03
2022-09-26T05:32:23.130Z,4.38
2022-09-26T05:34:51.882Z,4.68
2022-09-26T05:37:21.144Z,5.32
2022-09-26T05:40:06.879Z,5.82
2022-09-26T05:42:37.488Z,6.80
2022-09-26T05:45:05.667Z,3.97
2022-09-26T05:47:36.993Z,4.57
2022-09-26T05:50:09.837Z,4.00
2022-09-26T05:52:39.125Z,4.78
2022-09-26T05:55:07.369Z,6.47
2022-09-26T05:58:06.223Z,3.63
2022-09-26T06:00:51.760Z,4.90
2022-09-26T06:03:19.479Z,2.83
2022-09-26T06:06:09.317Z,4.32
2022-09-26T06:08:38.241Z,6.05
2022-09-26T06:11:31.245Z,4.90
2022-09-26T06:14:00.527Z,3.10
2022-09-26T06:16:28.924Z,3.63
2022-09-26T06:18:56.116Z,5.60
2022-09-26T06:21:24.071Z,3.53
2022-09-26T06:24:09.107Z,6.10
2022-09-26T06:26:37.100Z,5.38
2022-09-26T06:29:04.456Z,3.80
2022-09-26T06:31:35.167Z,8.32
2022-09-26T06:34:12.786Z,5.63
2022-09-26T06:36:59.427Z,4.28
2022-09-26T06:39:35.404Z,4.43
2022-09-26T06:42:05.592Z,6.25
2022-09-26T06:44:57.603Z,8.20
2022-09-26T06:47:30.251Z,4.35
2022-09-26T06:50:14.577Z,4.43
2022-09-26T06:52:44.618Z,5.20
2022-09-26T06:55:14.098Z,6.18
2022-09-26T06:57:43.790Z,4.32
2022-09-26T07:00:15.788Z,5.80
2022-09-26T07:03:17.805Z,4.40
2022-09-26T07:05:48.146Z,9.85
2022-09-26T07:08:15.564Z,5.93
2022-09-26T07:10:42.562Z,4.20
2022-09-26T07:13:16.793Z,4.22
2022-09-26T07:15:47.444Z,4.25
2022-09-26T07:18:44.511Z,3.70
2022-09-26T07:21:18.100Z,7.72
2022-09-26T07:23:50.429Z,4.75
2022-09-26T07:26:20.303Z,5.28
2022-09-26T07:28:52.222Z,4.72
2022-09-26T07:31:23.436Z,4.75
2022-09-26T07:34:07.559Z,5.88
2022-09-26T07:36:35.704Z,3.92
2022-09-26T07:39:03.935Z,4.75
2022-09-26T07:41:31.011Z,5.18
2022-09-26T07:47:05.128Z,6.85
2022-09-26T07:49:50.353Z,5.13
2022-09-26T07:52:42.256Z,3.70
2022-09-26T07:55:26.823Z,5.35
2022-09-26T07:58:17.532Z,7.18
2022-09-26T08:01:02.141Z,7.00
2022-09-26T08:03:58.486Z,4.43
2022-09-26T08:06:34.947Z,6.95
2022-09-26T08:09:02.011Z,7.32
2022-09-26T08:11:47.347Z,5.97
2022-09-26T08:14:22.491Z,4.60
2022-09-26T08:17:05.118Z,6.10
2022-09-26T08:19:31.878Z,6.80
2022-09-26T08:21:59.036Z,4.93
2022-09-26T08:24:26.104Z,5.68
2022-09-26T08:27:14.044Z,5.75
2022-09-26T08:29:42.646Z,6.22
2022-09-26T08:32:09.436Z,5.07
2022-09-26T08:34:36.422Z,4.45
2022-09-26T08:37:27.820Z,5.35
2022-09-26T08:40:14.841Z,6.45
2022-09-26T08:43:56.157Z,8.15
2022-09-26T08:47:05.308Z,7.70
2022-09-26T08:50:20.367Z,7.40
2022-09-26T08:52:58.955Z,3.17
2022-09-26T08:55:32.742Z,3.55
2022-09-26T08:58:08.173Z,3.97
2022-09-26T09:00:40.290Z,6.43
2022-09-26T09:03:10.463Z,7.38
2022-09-26T09:05:44.087Z,5.10
2022-09-26T09:08:22.096Z,5.90
2022-09-26T09:11:20.292Z,4.30
2022-09-26T09:14:01.667Z,7.05
2022-09-26T09:17:34.449Z,4.88
2022-09-26T09:20:41.071Z,7.85
2022-09-26T09:23:51.277Z,6.95
2022-09-26T09:30:25.590Z,4.80
2022-09-26T09:33:03.731Z,4.47
2022-09-26T09:36:06.581Z,5.93
2022-09-26T09:38:43.825Z,3.17
2022-09-26T09:41:34.739Z,8.48
2022-09-26T09:44:10.863Z,5.43
2022-09-26T09:46:43.183Z,4.60
2022-09-26T09:49:10.097Z,4.85
2022-09-26T09:52:02.517Z,4.97
2022-09-26T09:54:40.611Z,5.28
2022-09-26T09:57:49.071Z,7.30
2022-09-26T10:00:19.983Z,5.95
2022-09-26T10:03:03.688Z,4.00
2022-09-26T10:05:39.278Z,5.63
2022-09-26T10:08:36.622Z,7.50
2022-09-26T10:11:29.430Z,6.95
2022-09-26T10:14:03.204Z,6.18
2022-09-26T10:17:09.020Z,4.03
2022-09-26T10:19:44.130Z,7.28
2022-09-26T10:22:42.872Z,6.03
2022-09-26T10:25:25.547Z,5.75
2022-09-26T10:27:57.932Z,6.72
2022-09-26T10:30:33.112Z,7.00
2022-09-26T10:33:05.247Z,8.18
2022-09-26T10:35:53.903Z,4.00
2022-09-26T10:38:29.392Z,5.35
2022-09-26T10:41:24.604Z,6.18
2022-09-26T10:43:56.275Z,4.55
2022-09-26T10:46:46.441Z,7.00
2022-09-26T10:50:10.428Z,3.53
2022-09-26T10:53:08.289Z,5.15
2022-09-26T10:55:43.837Z,5.60
2022-09-26T10:58:20.209Z,5.57
2022-09-26T11:00:52.854Z,3.38
2022-09-26T11:03:40.163Z,6.32
2022-09-26T11:06:36.087Z,4.00
2022-09-26T11:09:22.084Z,5.30
2022-09-26T11:12:32.241Z,2.90
2022-09-26T11:15:11.096Z,4.15
2022-09-26T11:17:50.852Z,4.88
2022-09-26T11:20:47.315Z,4.72
2022-09-26T11:23:55.056Z,4.53
2022-09-26T11:26:53.308Z,2.97
2022-09-26T11:30:09.125Z,3.38
2022-09-26T11:32:45.081Z,5.38
2022-09-26T11:35:33.833Z,4.53
2022-09-26T11:38:09.282Z,3.65
2022-09-26T11:41:00.941Z,6.22
2022-09-26T11:44:01.484Z,2.63
2022-09-26T11:47:21.136Z,2.72
2022-09-26T11:50:01.151Z,3.78
2022-09-26T11:53:06.920Z,2.97
2022-09-26T11:55:58.896Z,3.53
2022-09-26T11:58:59.152Z,3.50
2022-09-26T12:01:43.431Z,2.75
2022-09-26T12:04:41.067Z,4.53
2022-09-26T12:07:46.431Z,3.85
2022-09-26T12:11:17.156Z,3.42
2022-09-26T12:14:27.351Z,3.75
2022-09-26T12:17:49.585Z,3.30
2022-09-26T12:20:55.100Z,4.60
2022-09-26T12:23:32.513Z,3.08
2022-09-26T12:26:16.947Z,5.53
2022-09-26T12:29:23.462Z,4.25
2022-09-26T12:32:02.622Z,6.15
2022-09-26T12:34:56.113Z,3.83
2022-09-26T12:37:43.218Z,3.10
2022-09-26T12:40:43.976Z,2.83
2022-09-26T12:44:00.769Z,3.55
2022-09-26T12:47:02.538Z,2.15
2022-09-26T12:49:58.107Z,3.55
2022-09-26T12:52:54.316Z,3.40
2022-09-26T12:55:55.667Z,3.67
2022-09-26T12:59:04.452Z,3.95
2022-09-26T13:02:03.718Z,3.05
2022-09-26T13:05:05.757Z,2.85
2022-09-26T13:07:57.234Z,2.83
2022-09-26T13:10:32.807Z,2.00
2022-09-26T13:13:13.983Z,3.03
2022-09-26T13:16:16.045Z,2.30
2022-09-26T13:19:31.400Z,2.03
2022-09-26T13:22:17.596Z,4.13
2022-09-26T13:24:56.791Z,2.25
2022-09-26T13:27:36.046Z,2.72
2022-09-26T13:30:18.880Z,2.50
2022-09-26T13:33:00.719Z,2.28
2022-09-26T13:35:31.768Z,1.60
2022-09-26T13:38:45.071Z,2.85
2022-09-26T13:41:46.931Z,1.92
2022-09-26T13:44:44.335Z,2.15
2022-09-26T13:47:59.696Z,2.20
2022-09-26T13:50:40.429Z,1.38
2022-09-26T13:53:16.350Z,2.15
2022-09-26T13:55:43.434Z,5.57
2022-09-26T13:58:25.700Z,1.70
2022-09-26T14:00:57.505Z,2.63
2022-09-26T14:03:24.762Z,3.08
2022-09-26T14:06:07.772Z,2.85
2022-09-26T14:08:54.773Z,2.65
2022-09-26T14:11:44.153Z,2.65
2022-09-26T14:14:21.228Z,2.78
2022-09-26T14:16:59.184Z,3.47
2022-09-26T14:19:53.667Z,3.15
2022-09-26T14:22:34.973Z,3.65
2022-09-26T14:25:02.491Z,2.08
2022-09-26T14:27:36.286Z,4.47
2022-09-26T14:30:29.969Z,6.93
2022-09-26T14:33:06.846Z,7.32
2022-09-26T14:35:38.405Z,4.53
2022-09-26T14:38:15.752Z,7.47
2022-09-26T14:40:58.081Z,7.28
2022-09-26T14:43:29.742Z,12.90
2022-09-26T14:46:07.626Z,6.80
2022-09-26T14:48:41.276Z,6.72
2022-09-26T14:51:11.247Z,6.25
2022-09-26T14:53:50.354Z,5.70
2022-09-26T14:56:37.204Z,4.00
2022-09-26T14:59:16.192Z,5.88
2022-09-26T15:01:44.874Z,5.65
2022-09-26T15:04:25.451Z,4.20
2022-09-26T15:07:01.094Z,4.53
2022-09-26T15:09:48.932Z,3.88
2022-09-26T15:12:30.595Z,4.40
2022-09-26T15:15:30.939Z,4.40
2022-09-26T15:18:15.200Z,3.88
2022-09-26T15:20:51.925Z,5.05
2022-09-26T15:23:33.123Z,5.28
2022-09-26T15:26:02.674Z,3.45
2022-09-26T15:28:34.917Z,4.15
2022-09-26T15:31:29.574Z,5.60
2022-09-26T15:34:12.188Z,4.72
2022-09-26T15:36:42.509Z,10.18
2022-09-26T15:39:32.280Z,8.25
2022-09-26T15:42:29.377Z,5.35
2022-09-26T15:45:00.095Z,11.10
2022-09-26T15:47:30.052Z,7.35
2022-09-26T15:50:14.360Z,9.52
2022-09-26T15:52:55.101Z,9.57
2022-09-26T15:55:31.716Z,9.70
2022-09-26T15:58:03.054Z,9.13
2022-09-26T16:00:39.952Z,9.32
2022-09-26T16:03:27.422Z,8.18
2022-09-26T16:05:55.251Z,6.05
2022-09-26T16:08:34.018Z,8.18
2022-09-26T16:11:01.932Z,11.15
2022-09-26T16:13:46.152Z,9.32
2022-09-26T16:16:21.622Z,7.78
2022-09-26T16:19:02.970Z,9.65
2022-09-26T16:21:36.181Z,11.68
2022-09-26T16:24:41.590Z,9.05
2022-09-26T16:27:24.244Z,9.43
2022-09-26T16:29:52.346Z,11.90
2022-09-26T16:32:21.493Z,12.80
2022-09-26T16:34:49.555Z,15.32
2022-09-26T16:37:25.108Z,11.43
2022-09-26T16:39:59.525Z,9.25
2022-09-26T16:42:32.736Z,13.63
2022-09-26T16:45:05.199Z,7.85
2022-09-26T16:47:47.653Z,8.15
2022-09-26T16:50:33.914Z,10.60
2022-09-26T16:53:06.737Z,9.50
2022-09-26T16:55:36.254Z,10.82
2022-09-26T16:58:05.436Z,9.95
2022-09-26T17:00:53.962Z,11.27
2022-09-26T17:03:36.377Z,9.45
2022-09-26T17:06:03.373Z,9.80
2022-09-26T17:08:30.368Z,10.80
2022-09-26T17:11:02.309Z,7.25
2022-09-26T17:13:33.937Z,11.05
2022-09-26T17:16:03.529Z,8.00
2022-09-26T17:18:33.264Z,9.75
2022-09-26T17:21:00.934Z,9.80
2022-09-26T17:23:41.493Z,10.55
2022-09-26T17:26:23.866Z,7.88
2022-09-26T17:28:53.610Z,8.63
2022-09-26T17:31:20.814Z,10.88
2022-09-26T17:33:52.208Z,10.57
2022-09-26T17:36:28.395Z,8.90
2022-09-26T17:38:59.547Z,8.35
2022-09-26T17:41:29.658Z,7.85
2022-09-26T17:44:01.049Z,11.38
2022-09-26T17:46:28.703Z,9.38
2022-09-26T17:48:56.199Z,12.77
2022-09-26T17:51:24.139Z,11.30
2022-09-26T17:53:52.841Z,9.90
2022-09-26T17:56:20.598Z,9.35
2022-09-26T17:58:49.480Z,8.85
2022-09-26T18:01:25.010Z,9.38
2022-09-26T18:03:57.380Z,11.02
2022-09-26T18:06:31.207Z,4.82
2022-09-26T18:09:01.811Z,8.63
2022-09-26T18:11:29.210Z,9.43
2022-09-26T18:13:56.807Z,7.18
2022-09-26T18:16:24.639Z,6.35
2022-09-26T18:18:51.746Z,9.88
2022-09-26T18:21:19.869Z,11.63
2022-09-26T18:23:56.373Z,7.00
2022-09-26T18:26:42.028Z,10.88
2022-09-26T18:29:15.252Z,9.50
2022-09-26T18:31:46.055Z,10.75
2022-09-26T18:34:20.280Z,17.02
2022-09-26T18:36:52.530Z,15.15
2022-09-26T18:39:19.396Z,18.02
2022-09-26T18:41:50.647Z,15.18
2022-09-26T18:44:18.287Z,10.23
2022-09-26T18:46:46.954Z,7.53
2022-09-26T18:49:15.563Z,6.63
2022-09-26T18:51:42.716Z,9.63
2022-09-26T18:54:15.846Z,9.35
2022-09-26T18:57:01.956Z,11.15
2022-09-26T18:59:31.153Z,15.65
2022-09-26T19:02:01.258Z,8.88
2022-09-26T19:04:30.549Z,8.35
2022-09-26T19:07:04.852Z,9.13
2022-09-26T19:09:35.180Z,7.25
2022-09-26T19:12:03.642Z,8.38
2022-09-26T19:14:31.964Z,4.78
2022-09-26T19:16:59.438Z,7.57
2022-09-26T19:19:28.556Z,7.43
2022-09-26T19:22:11.541Z,6.93
2022-09-26T19:24:40.457Z,6.65
2022-09-26T19:27:42.995Z,7.32
2022-09-26T19:30:20.988Z,9.77
2022-09-26T19:32:52.125Z,4.90
2022-09-26T19:35:36.539Z,5.93
2022-09-26T19:38:14.989Z,5.97
2022-09-26T19:40:46.231Z,9.75
2022-09-26T19:43:16.561Z,9.10
2022-09-26T19:45:45.030Z,13.02
2022-09-26T19:48:22.469Z,7.60
2022-09-26T19:50:52.317Z,10.68
2022-09-26T19:53:22.464Z,4.57
2022-09-26T19:55:50.496Z,10.30
2022-09-26T19:58:27.778Z,4.03
2022-09-26T20:00:58.543Z,3.33
2022-09-26T20:03:31.903Z,5.07
2022-09-26T20:05:58.714Z,2.97
2022-09-26T20:08:27.501Z,6.70
2022-09-26T20:10:56.602Z,6.50
2022-09-26T20:13:23.466Z,6.93
2022-09-26T20:15:50.563Z,6.13
2022-09-26T20:18:23.984Z,3.17
2022-09-26T20:20:58.363Z,5.35
2022-09-26T20:23:26.663Z,3.58
2022-09-26T20:25:55.312Z,5.78
2022-09-26T20:28:22.203Z,4.88
2022-09-26T20:30:51.891Z,3.60
2022-09-26T20:33:22.121Z,5.93
2022-09-26T20:36:02.988Z,6.82
2022-09-26T20:38:37.991Z,5.53
2022-09-26T20:41:22.185Z,4.47
2022-09-26T20:43:56.717Z,6.57
2022-09-26T20:46:23.738Z,4.10
2022-09-26T20:48:51.198Z,3.45
2022-09-26T20:51:27.112Z,6.50
2022-09-26T20:53:53.856Z,4.00
2022-09-26T20:56:21.286Z,5.25
2022-09-26T20:58:48.647Z,4.35
2022-09-26T21:01:18.906Z,6.82
2022-09-26T21:03:54.981Z,5.63
2022-09-26T21:06:34.888Z,6.15
2022-09-26T21:09:02.536Z,5.90
2022-09-26T21:11:29.432Z,6.82
2022-09-26T21:13:56.296Z,6.20
2022-09-26T21:16:23.174Z,6.60
2022-09-26T21:18:52.365Z,2.85
2022-09-26T21:21:30.067Z,6.72
2022-09-26T21:24:25.015Z,5.07
2022-09-26T21:26:52.247Z,3.95
2022-09-26T21:29:19.002Z,5.07
2022-09-26T21:31:51.416Z,9.38
2022-09-26T21:34:25.859Z,5.65
2022-09-26T21:36:56.934Z,8.90
2022-09-26T21:39:25.165Z,5.80
2022-09-26T21:41:57.473Z,7.25
2022-09-26T21:44:39.987Z,7.30
2022-09-26T21:47:06.937Z,5.65
2022-09-26T21:49:34.226Z,4.47
2022-09-26T21:52:15.062Z,5.95
2022-09-26T21:54:45.126Z,4.85
2022-09-26T21:57:29.473Z,2.47
2022-09-26T21:59:58.292Z,3.92
2022-09-26T22:02:26.105Z,5.70
2022-09-26T22:04:53.117Z,5.25
2022-09-26T22:07:20.607Z,5.00
2022-09-26T22:09:47.395Z,4.45
2022-09-26T22:12:14.156Z,9.35
2022-09-26T22:14:41.551Z,3.53
2022-09-26T22:17:08.681Z,3.38
2022-09-26T22:19:35.896Z,6.15
2022-09-26T22:22:02.728Z,5.20
2022-09-26T22:24:30.221Z,4.70
2022-09-26T22:26:56.933Z,3.72
2022-09-26T22:29:23.698Z,4.82
2022-09-26T22:31:50.507Z,7.35
2022-09-26T22:34:17.415Z,3.67
2022-09-26T22:36:44.150Z,5.15
2022-09-26T22:39:10.964Z,4.93
2022-09-26T22:41:37.952Z,4.45
2022-09-26T22:44:04.675Z,4.43
2022-09-26T22:46:34.318Z,3.25
2022-09-26T22:49:01.724Z,3.33
2022-09-26T22:51:28.958Z,3.22
2022-09-26T22:53:55.850Z,5.45
2022-09-26T22:56:23.086Z,3.00
2022-09-26T22:58:52.196Z,5.20
2022-09-26T23:01:29.937Z,8.75
2022-09-26T23:04:00.354Z,6.00
2022-09-26T23:06:28.084Z,2.60
2022-09-26T23:08:55.093Z,4.82
2022-09-26T23:11:22.640Z,5.18
2022-09-26T23:13:52.212Z,2.35
2022-09-26T23:16:22.758Z,1.75
2022-09-26T23:18:51.653Z,3.47
2022-09-26T23:21:27.770Z,3.63
2022-09-26T23:23:57.781Z,3.13
2022-09-26T23:26:31.625Z,6.00
2022-09-26T23:28:59.975Z,1.92
2022-09-26T23:31:28.580Z,1.92
2022-09-26T23:33:56.532Z,4.95
2022-09-26T23:36:24.220Z,3.30
2022-09-26T23:38:51.000Z,2.67
2022-09-26T23:41:18.317Z,2.95
2022-09-26T23:43:46.315Z,2.90
2022-09-26T23:46:13.519Z,1.92
2022-09-26T23:48:40.912Z,3.47
2022-09-26T23:51:08.411Z,1.77
2022-09-26T23:53:35.444Z,4.82
2022-09-26T23:56:09.024Z,2.97
2022-09-26T23:58:37.195Z,0.57
